Terminal Aerodrome Forecast
Issued by NWS Wilmington, OH

Home | Current Version | Previous Version | Text Only | Print | Product List | Glossary On
Versions: 1 2 3 4 5 6 7 8 9 10 11 12 13 14 15 16 17 18 19 20 21
000
FTUS41 KILN 140500
TAFILN
TAF
KILN 140521Z 1406/1506 22005KT P6SM BKN080
      TEMPO 1406/1407 5SM BR
     FM140700 24004KT 4SM BR BKN025
     FM141200 24005KT 5SM BR VCSH BKN025
     FM141400 23008KT P6SM SCT035 BKN100
     FM142000 23010KT P6SM VCSH BKN040
     FM150000 24008KT P6SM SCT040=

USA.gov is the U.S. government's official web portal to all federal, state and local government web resources and services.